Time;durP1;ratioP1;P1;durP2;ratioP2;P2;SDS_P1;SDS_P2;PMS_P1;PMS_P2;Temp;Humidity;BMP_temperature;BMP_pressure;BME280_temperature;BME280_humidity;BME280_pressure;Samples;Min_cycle;Max_cycle;Signal;HPM_P1;HPM_P2
2023/12/29 00:02:07;;;;;;;20.23;11.05;;;3.70;1.00;;;;;;5176099;28;20310;-30
2023/12/29 00:04:38;;;;;;;18.42;11.05;;;3.70;1.00;;;;;;5175964;28;20238;-30
2023/12/29 00:07:10;;;;;;;19.38;10.68;;;3.70;1.00;;;;;;5183110;28;20026;-30
2023/12/29 00:09:41;;;;;;;19.95;11.75;;;3.80;1.00;;;;;;5179457;28;20040;-32
2023/12/29 00:12:15;;;;;;;21.88;11.32;;;3.80;1.00;;;;;;5175978;28;20048;-32
2023/12/29 00:14:49;;;;;;;18.52;11.95;;;3.80;1.00;;;;;;5173500;28;20041;-32
2023/12/29 00:17:22;;;;;;;20.80;11.15;;;3.80;1.00;;;;;;5160983;28;20034;-32
2023/12/29 00:19:53;;;;;;;18.00;11.50;;;3.80;1.00;;;;;;5182522;28;20026;-32
2023/12/29 00:22:25;;;;;;;20.02;11.55;;;4.00;1.00;;;;;;5180036;28;20040;-32
2023/12/29 00:25:01;;;;;;;19.33;11.88;;;3.80;1.00;;;;;;5184439;28;20226;-32
2023/12/29 00:27:32;;;;;;;20.00;11.85;;;3.80;1.00;;;;;;5185949;28;20030;-32
2023/12/29 00:30:03;;;;;;;18.08;10.07;;;3.80;1.00;;;;;;5191927;28;20048;-31
2023/12/29 00:32:38;;;;;;;16.52;10.30;;;3.90;1.00;;;;;;5175808;28;20361;-32
2023/12/29 00:35:09;;;;;;;14.27;9.07;;;3.90;1.00;;;;;;5188490;28;20026;-31
2023/12/29 00:37:44;;;;;;;15.65;9.73;;;3.90;99.90;;;;;;5185591;28;20038;-31
2023/12/29 00:40:15;;;;;;;15.27;9.90;;;3.90;99.90;;;;;;5187688;28;20026;-31
2023/12/29 00:42:49;;;;;;;17.13;10.73;;;3.80;99.90;;;;;;5164229;28;20041;-31
2023/12/29 00:45:23;;;;;;;17.37;10.33;;;3.80;1.00;;;;;;5183897;28;20036;-31
2023/12/29 00:48:00;;;;;;;16.67;10.82;;;3.90;1.00;;;;;;5185097;28;20032;-31
2023/12/29 00:50:31;;;;;;;15.80;10.65;;;3.90;1.00;;;;;;5188412;28;20048;-31
2023/12/29 00:53:03;;;;;;;18.90;11.55;;;3.80;1.00;;;;;;5187276;28;20056;-31
2023/12/29 00:55:34;;;;;;;18.23;11.35;;;3.70;1.00;;;;;;5181100;28;20025;-31
2023/12/29 00:58:05;;;;;;;18.33;11.25;;;3.80;1.00;;;;;;5183681;28;20034;-33
2023/12/29 01:00:39;;;;;;;21.27;12.80;;;3.80;1.00;;;;;;5188072;28;20323;-32
2023/12/29 01:03:14;;;;;;;26.10;13.77;;;3.80;1.00;;;;;;5178736;28;20161;-32
2023/12/29 01:05:46;;;;;;;22.38;12.85;;;3.90;1.00;;;;;;5185842;28;20040;-32
2023/12/29 01:08:20;;;;;;;22.38;12.40;;;4.00;1.00;;;;;;5152090;28;20345;-32
2023/12/29 01:10:51;;;;;;;20.73;11.90;;;3.90;1.00;;;;;;5168769;28;20030;-32
2023/12/29 01:13:23;;;;;;;17.95;11.32;;;4.10;1.00;;;;;;5185936;28;20034;-32
2023/12/29 01:15:58;;;;;;;19.02;10.15;;;4.10;1.00;;;;;;5183040;28;20049;-31
2023/12/29 01:18:31;;;;;;;18.70;11.00;;;4.10;1.00;;;;;;5148685;28;20246;-31
2023/12/29 01:21:02;;;;;;;15.75;10.27;;;4.10;1.00;;;;;;5165886;28;20034;-31
2023/12/29 01:23:34;;;;;;;18.77;10.60;;;4.10;1.00;;;;;;5175503;28;20049;-32
2023/12/29 01:26:05;;;;;;;22.55;12.23;;;4.00;1.00;;;;;;5186793;28;20038;-32
2023/12/29 01:28:39;;;;;;;18.00;11.00;;;3.90;1.00;;;;;;5186752;28;20048;-31
2023/12/29 01:31:13;;;;;;;18.55;10.85;;;3.90;1.00;;;;;;5183812;28;20034;-32
2023/12/29 01:33:44;;;;;;;17.55;11.55;;;4.00;1.00;;;;;;5168712;28;20064;-31
2023/12/29 01:36:19;;;;;;;19.88;11.55;;;4.00;1.00;;;;;;5167902;28;20034;-31
2023/12/29 01:38:50;;;;;;;21.63;11.40;;;4.10;1.00;;;;;;5166213;28;20030;-31
2023/12/29 01:41:22;;;;;;;17.17;10.85;;;4.10;1.00;;;;;;5174061;28;20321;-31
2023/12/29 01:43:59;;;;;;;19.15;11.20;;;4.20;1.00;;;;;;5169973;28;20038;-31
2023/12/29 01:46:34;;;;;;;15.65;9.75;;;4.10;1.00;;;;;;5184081;28;20040;-31
2023/12/29 01:49:08;;;;;;;14.23;9.57;;;4.10;1.00;;;;;;5169712;28;20073;-32
2023/12/29 01:51:39;;;;;;;15.35;9.57;;;4.00;1.00;;;;;;5187069;28;20041;-32
2023/12/29 01:54:12;;;;;;;15.75;8.48;;;4.00;1.00;;;;;;5164543;28;20037;-32
2023/12/29 01:56:55;;;;;;;17.80;10.18;;;4.10;1.00;;;;;;5171973;28;20326;-30
2023/12/29 01:59:31;;;;;;;17.52;9.57;;;4.10;1.00;;;;;;5164274;28;20045;-30
2023/12/29 02:02:05;;;;;;;14.65;9.32;;;4.10;1.00;;;;;;5162581;28;20210;-31
2023/12/29 02:04:37;;;;;;;14.35;9.63;;;4.10;1.00;;;;;;5182131;28;20030;-31
2023/12/29 02:07:08;;;;;;;15.65;9.45;;;4.20;99.90;;;;;;5187092;28;20044;-32
2023/12/29 02:09:44;;;;;;;14.50;8.85;;;4.20;99.90;;;;;;5186682;28;20026;-32
2023/12/29 02:12:19;;;;;;;13.93;8.63;;;4.20;99.90;;;;;;5184135;28;20034;-32
2023/12/29 02:14:50;;;;;;;;;;;4.20;99.90;;;;;;5182102;28;20033;-32
2023/12/29 02:17:36;;;;;;;15.27;11.10;;;4.10;99.90;;;;;;5162290;28;20008;-32
2023/12/29 02:20:09;;;;;;;14.82;8.40;;;4.00;99.90;;;;;;5184705;28;20041;-29
2023/12/29 02:22:43;;;;;;;14.07;8.70;;;4.00;99.90;;;;;;5186644;28;20032;-32
2023/12/29 02:25:16;;;;;;;13.43;8.63;;;4.10;1.00;;;;;;5185814;28;20105;-32
2023/12/29 02:28:24;;;;;;;14.25;8.13;;;4.20;99.90;;;;;;5148417;28;20034;-32
2023/12/29 02:31:12;;;;;;;13.13;7.85;;;4.20;99.90;;;;;;5138581;28;20045;-32
2023/12/29 02:33:45;;;;;;;15.32;8.30;;;4.10;99.90;;;;;;5137884;28;20049;-32
2023/12/29 02:36:19;;;;;;;16.38;9.05;;;4.00;99.90;;;;;;5110677;28;20451;-32
2023/12/29 02:38:54;;;;;;;13.80;8.48;;;3.90;99.90;;;;;;5145911;28;20039;-34
2023/12/29 02:41:28;;;;;;;12.98;8.80;;;3.90;1.00;;;;;;5143207;28;20027;-32
2023/12/29 02:44:00;;;;;;;15.60;9.50;;;4.00;1.00;;;;;;5136835;28;20315;-32
2023/12/29 02:46:31;;;;;;;13.77;8.90;;;4.10;1.00;;;;;;5108766;29;20054;-32
2023/12/29 02:49:11;;;;;;;11.27;7.38;;;4.10;1.00;;;;;;5122803;29;20037;-31
2023/12/29 02:51:42;;;;;;;15.10;9.27;;;4.20;1.00;;;;;;5129104;28;20065;-31
2023/12/29 02:54:16;;;;;;;12.90;8.27;;;4.20;99.90;;;;;;5137489;28;20058;-31
2023/12/29 02:56:47;;;;;;;11.70;8.02;;;4.10;99.90;;;;;;5120398;28;20050;-31
2023/12/29 02:59:19;;;;;;;13.57;8.73;;;4.20;1.00;;;;;;5139606;28;20042;-32
2023/12/29 03:02:08;;;;;;;13.88;8.43;;;4.20;99.90;;;;;;5139206;28;20248;-31
2023/12/29 03:04:40;;;;;;;13.18;8.27;;;4.10;99.90;;;;;;5175012;28;20038;-31
2023/12/29 03:07:13;;;;;;;16.60;9.23;;;4.00;99.90;;;;;;5151009;28;20037;-30
2023/12/29 03:09:44;;;;;;;18.97;8.87;;;4.00;99.90;;;;;;5179969;28;20217;-30
2023/12/29 03:12:19;;;;;;;13.70;7.85;;;4.00;1.00;;;;;;5162567;28;20363;-34
2023/12/29 03:14:53;;;;;;;14.98;8.88;;;4.10;1.00;;;;;;5161311;28;20041;-33
2023/12/29 03:17:27;;;;;;;14.07;9.47;;;4.30;1.00;;;;;;5177899;28;20044;-32
2023/12/29 03:19:59;;;;;;;12.30;8.45;;;4.40;1.00;;;;;;5185331;28;20255;-33
2023/12/29 03:22:30;;;;;;;13.93;8.63;;;4.50;99.90;;;;;;5185849;28;20393;-32
2023/12/29 03:25:06;;;;;;;12.98;8.18;;;4.50;99.90;;;;;;5184774;28;20029;-32
2023/12/29 03:27:40;;;;;;;14.52;8.32;;;4.50;99.90;;;;;;5169908;28;20041;-32
2023/12/29 03:30:14;;;;;;;15.10;8.85;;;4.50;99.90;;;;;;5180870;28;20212;-31
2023/12/29 03:32:47;;;;;;;13.70;9.15;;;4.50;99.90;;;;;;5177777;28;20187;-31
2023/12/29 03:35:18;;;;;;;14.55;8.60;;;4.50;99.90;;;;;;5172248;28;20034;-31
2023/12/29 03:37:50;;;;;;;14.82;9.35;;;4.50;99.90;;;;;;5153965;28;20479;-33
2023/12/29 03:40:27;;;;;;;15.35;10.05;;;4.40;99.90;;;;;;5164992;28;20040;-30
2023/12/29 03:43:03;;;;;;;12.48;9.75;;;4.40;99.90;;;;;;5167438;28;20025;-30
2023/12/29 03:45:34;;;;;;;15.27;9.73;;;4.40;99.90;;;;;;5156129;28;20034;-30
2023/12/29 03:48:05;;;;;;;13.38;9.63;;;4.40;99.90;;;;;;5165891;28;20038;-32
2023/12/29 03:50:38;;;;;;;13.35;8.68;;;4.30;99.90;;;;;;5167227;28;20032;-32
2023/12/29 03:53:32;;;;;;;17.15;9.98;;;4.30;99.90;;;;;;5186314;28;20030;-32
2023/12/29 03:56:09;;;;;;;12.48;9.32;;;4.20;99.90;;;;;;5186269;28;20441;-32
2023/12/29 03:58:46;;;;;;;14.02;8.75;;;4.20;1.00;;;;;;5190513;28;20060;-32
2023/12/29 04:01:23;;;;;;;15.63;9.73;;;4.20;1.00;;;;;;5175667;28;20381;-32
2023/12/29 04:04:04;;;;;;;15.68;9.88;;;4.30;1.00;;;;;;5189994;28;20021;-33
2023/12/29 04:06:41;;;;;;;16.20;9.50;;;4.30;1.00;;;;;;5187852;28;20030;-32
2023/12/29 04:09:21;;;;;;;15.77;9.75;;;4.40;1.00;;;;;;5180211;28;20028;-31
2023/12/29 04:12:08;;;;;;;6.55;4.38;;;4.50;1.00;;;;;;5181008;28;20196;-33
2023/12/29 04:14:43;;;;;;;2.85;1.70;;;5.80;1.00;;;;;;5184136;28;20040;-33
2023/12/29 04:17:17;;;;;;;4.18;2.33;;;7.00;86.30;;;;;;5163196;28;20022;-31
2023/12/29 04:19:56;;;;;;;;;;;7.70;99.90;;;;;;5178302;28;20456;-33
2023/12/29 04:22:35;;;;;;;5.72;4.80;;;8.30;1.00;;;;;;5184146;28;20240;-33
2023/12/29 04:25:09;;;;;;;11.25;7.60;;;8.60;1.00;;;;;;5187391;28;20322;-31
2023/12/29 04:27:45;;;;;;;11.68;7.03;;;8.20;1.00;;;;;;5178075;28;20117;-31
2023/12/29 04:30:17;;;;;;;13.23;8.57;;;7.60;1.00;;;;;;5181612;28;20030;-31
2023/12/29 04:32:48;;;;;;;12.90;8.70;;;6.70;1.00;;;;;;5199573;28;20570;-31
2023/12/29 04:35:19;;;;;;;12.55;7.78;;;6.10;1.00;;;;;;5164137;28;20041;-32
2023/12/29 04:37:53;;;;;;;12.30;7.78;;;5.80;1.00;;;;;;5211293;28;20178;-31
2023/12/29 04:40:24;;;;;;;12.35;8.25;;;5.50;99.90;;;;;;5211042;28;20529;-31
2023/12/29 04:43:00;;;;;;;12.30;7.80;;;5.30;1.00;;;;;;5174303;28;20068;-31
2023/12/29 04:45:35;;;;;;;14.35;9.00;;;5.10;1.00;;;;;;5186199;28;20494;-31
2023/12/29 04:48:12;;;;;;;14.38;8.20;;;4.90;99.90;;;;;;5189207;28;20050;-31
2023/12/29 04:50:45;;;;;;;12.88;8.32;;;4.60;1.00;;;;;;5179879;28;20036;-31
2023/12/29 04:53:16;;;;;;;10.20;8.20;;;4.50;1.00;;;;;;5172650;28;20064;-31
2023/12/29 04:55:50;;;;;;;16.13;9.05;;;4.40;1.00;;;;;;5172142;28;20065;-31
2023/12/29 04:58:22;;;;;;;14.90;8.40;;;4.30;1.00;;;;;;5185164;28;20229;-32
2023/12/29 05:00:56;;;;;;;10.68;7.57;;;4.20;99.90;;;;;;5179761;28;20028;-31
2023/12/29 05:03:30;;;;;;;13.85;8.88;;;4.20;99.90;;;;;;5157781;28;20322;-31
2023/12/29 05:06:06;;;;;;;17.95;10.15;;;4.20;99.90;;;;;;5152918;28;20041;-31
2023/12/29 05:08:37;;;;;;;12.98;8.43;;;4.30;99.90;;;;;;5147336;28;20249;-31
2023/12/29 05:11:11;;;;;;;12.30;9.38;;;4.30;99.90;;;;;;5189749;28;20037;-31
2023/12/29 05:13:46;;;;;;;14.15;7.95;;;4.30;99.90;;;;;;5170881;28;20309;-31
2023/12/29 05:16:22;;;;;;;14.65;8.48;;;4.20;99.90;;;;;;5186419;28;20026;-31
2023/12/29 05:18:56;;;;;;;14.70;8.95;;;4.20;99.90;;;;;;5188712;28;20030;-31
2023/12/29 05:21:27;;;;;;;15.30;9.00;;;4.10;99.90;;;;;;5171383;28;20038;-31
2023/12/29 05:23:59;;;;;;;12.98;8.63;;;4.10;99.90;;;;;;5186289;28;20048;-31
2023/12/29 05:26:36;;;;;;;13.52;8.20;;;3.90;99.90;;;;;;5180014;28;20060;-34
2023/12/29 05:29:07;;;;;;;16.55;9.27;;;3.90;99.90;;;;;;5184567;28;20326;-31
2023/12/29 05:31:44;;;;;;;12.35;7.82;;;3.70;1.00;;;;;;5161887;28;20049;-31
2023/12/29 05:34:18;;;;;;;13.82;9.20;;;3.70;1.00;;;;;;5150146;28;20042;-31
2023/12/29 05:36:52;;;;;;;14.68;9.00;;;3.50;1.00;;;;;;5165734;28;20027;-31
2023/12/29 05:39:29;;;;;;;14.60;8.50;;;3.50;1.00;;;;;;5165590;28;20030;-31
2023/12/29 05:42:03;;;;;;;14.55;8.25;;;3.50;1.00;;;;;;5155628;28;20042;-31
2023/12/29 05:44:41;;;;;;;16.52;10.40;;;3.40;1.00;;;;;;5138293;28;20075;-31
2023/12/29 05:47:14;;;;;;;14.63;8.45;;;3.40;1.00;;;;;;5162686;28;20042;-31
2023/12/29 05:49:45;;;;;;;14.63;9.63;;;3.30;1.00;;;;;;5165931;28;20038;-33
2023/12/29 05:52:22;;;;;;;15.00;8.23;;;3.30;1.00;;;;;;5164724;28;20255;-33
2023/12/29 05:54:58;;;;;;;13.70;7.90;;;3.20;1.00;;;;;;5151661;28;20550;-31
2023/12/29 05:57:33;;;;;;;16.63;9.50;;;3.20;1.00;;;;;;5143298;28;20042;-30
2023/12/29 06:00:04;;;;;;;17.92;8.63;;;3.10;1.00;;;;;;5153295;28;20042;-33
2023/12/29 06:02:41;;;;;;;18.58;8.90;;;3.10;1.00;;;;;;5176044;28;20281;-32
2023/12/29 06:05:15;;;;;;;15.95;8.50;;;3.00;1.00;;;;;;5187093;28;20325;-32
2023/12/29 06:07:49;;;;;;;15.13;8.68;;;3.00;1.00;;;;;;5165847;28;20191;-32
2023/12/29 06:10:23;;;;;;;12.60;8.25;;;2.90;1.00;;;;;;5159963;28;20030;-32
2023/12/29 06:12:57;;;;;;;12.20;8.23;;;2.90;1.00;;;;;;5174346;28;20044;-32
2023/12/29 06:15:31;;;;;;;13.27;8.55;;;2.90;1.00;;;;;;5152588;28;20045;-32
2023/12/29 06:18:03;;;;;;;12.30;8.77;;;3.00;1.00;;;;;;5165074;28;20043;-33
2023/12/29 06:20:37;;;;;;;16.70;9.07;;;3.00;1.00;;;;;;5169300;28;20052;-31
2023/12/29 06:23:12;;;;;;;18.85;9.77;;;2.90;1.00;;;;;;5187635;28;20221;-31
2023/12/29 06:25:43;;;;;;;20.95;11.15;;;2.90;1.00;;;;;;5187714;28;20552;-33
2023/12/29 06:28:16;;;;;;;14.35;9.52;;;2.80;1.00;;;;;;5184051;28;20026;-31
2023/12/29 06:30:47;;;;;;;14.57;8.68;;;2.70;1.00;;;;;;5183974;28;20042;-31
2023/12/29 06:33:21;;;;;;;15.07;9.60;;;2.60;1.00;;;;;;5186061;28;20222;-31
2023/12/29 06:35:58;;;;;;;12.32;8.98;;;2.60;1.00;;;;;;5182614;28;20326;-32
2023/12/29 06:38:30;;;;;;;15.20;8.57;;;2.50;1.00;;;;;;5170361;28;20341;-32
2023/12/29 06:41:04;;;;;;;16.52;9.95;;;2.40;1.00;;;;;;5185088;28;20036;-32
2023/12/29 06:43:38;;;;;;;14.07;9.15;;;2.50;1.00;;;;;;5186020;28;20018;-32
2023/12/29 06:46:09;;;;;;;13.77;8.27;;;2.50;1.00;;;;;;5183325;28;20262;-32
2023/12/29 06:48:41;;;;;;;11.32;6.63;;;2.60;1.00;;;;;;5187479;28;20048;-32
2023/12/29 06:51:19;;;;;;;17.27;10.52;;;2.80;1.00;;;;;;5186515;28;20036;-32
2023/12/29 06:53:50;;;;;;;18.55;10.63;;;3.00;1.00;;;;;;5181386;28;20030;-32
2023/12/29 06:56:25;;;;;;;11.18;6.90;;;3.00;1.00;;;;;;5169888;28;20052;-32
2023/12/29 06:58:57;;;;;;;16.17;9.23;;;3.10;1.00;;;;;;5172859;28;20030;-35
2023/12/29 07:01:28;;;;;;;13.73;8.25;;;3.20;1.00;;;;;;5182914;28;20021;-32
2023/12/29 07:03:59;;;;;;;9.77;5.18;;;3.30;1.00;;;;;;5186549;28;20026;-32
2023/12/29 07:06:33;;;;;;;5.07;3.15;;;3.70;1.00;;;;;;5169335;28;20026;-32
2023/12/29 07:09:05;;;;;;;2.50;2.05;;;4.90;99.90;;;;;;5186825;28;20038;-32
2023/12/29 07:11:41;;;;;;;1.88;1.42;;;6.00;64.90;;;;;;5186359;28;20055;-32
2023/12/29 07:14:12;;;;;;;2.42;1.48;;;6.90;84.80;;;;;;5179440;28;20029;-32
2023/12/29 07:16:46;;;;;;;1.67;1.30;;;7.40;1.00;;;;;;5165742;28;20049;-31
2023/12/29 07:19:20;;;;;;;;;;;7.70;99.90;;;;;;5185076;28;20348;-31
2023/12/29 07:21:56;;;;;;;0.93;0.90;;;7.90;99.90;;;;;;5168694;28;19909;-31
2023/12/29 07:24:27;;;;;;;0.70;0.70;;;8.00;47.10;;;;;;5163523;28;20031;-31
2023/12/29 07:27:04;;;;;;;0.90;0.90;;;8.30;1.00;;;;;;5179182;28;20032;-31
2023/12/29 07:29:38;;;;;;;0.98;0.88;;;8.60;1.00;;;;;;5186427;28;20030;-32
2023/12/29 07:32:09;;;;;;;3.03;1.20;;;8.80;1.00;;;;;;5146485;28;20042;-32
2023/12/29 07:34:40;;;;;;;2.38;1.23;;;9.10;1.00;;;;;;5167574;28;20042;-31
2023/12/29 07:37:12;;;;;;;1.08;1.00;;;9.30;1.00;;;;;;5170908;28;20030;-31
2023/12/29 07:39:43;;;;;;;1.00;0.90;;;9.40;1.00;;;;;;5175757;28;20218;-31
2023/12/29 07:42:17;;;;;;;4.30;3.17;;;9.50;1.00;;;;;;5186187;28;20048;-31
2023/12/29 07:44:48;;;;;;;5.45;4.20;;;9.40;1.00;;;;;;5186427;28;20032;-31
2023/12/29 07:47:20;;;;;;;10.05;4.72;;;8.70;1.00;;;;;;5179910;28;20037;-31
2023/12/29 07:49:51;;;;;;;7.10;4.70;;;8.10;1.00;;;;;;5186686;28;20029;-31
2023/12/29 07:52:23;;;;;;;8.68;5.07;;;7.50;1.00;;;;;;5186379;28;20245;-32
2023/12/29 07:54:56;;;;;;;9.27;5.05;;;7.20;1.00;;;;;;5177920;28;20042;-31
2023/12/29 07:57:29;;;;;;;8.23;5.43;;;7.10;1.00;;;;;;5170559;28;20040;-34
2023/12/29 08:00:01;;;;;;;8.23;5.38;;;7.00;1.00;;;;;;5166863;28;20050;-31
2023/12/29 08:02:35;;;;;;;9.25;5.18;;;7.30;1.00;;;;;;5184285;28;20211;-31
2023/12/29 08:05:08;;;;;;;6.85;4.75;;;7.60;1.00;;;;;;5188636;28;20380;-31
2023/12/29 08:07:44;;;;;;;6.40;5.03;;;8.00;1.00;;;;;;5190683;28;20311;-31
2023/12/29 08:10:18;;;;;;;9.85;4.75;;;8.50;1.00;;;;;;5171665;28;20252;-31
2023/12/29 08:12:52;;;;;;;6.13;4.95;;;8.80;1.00;;;;;;5188622;28;20038;-31
2023/12/29 08:15:23;;;;;;;9.32;5.35;;;9.10;1.00;;;;;;5168241;28;20045;-31
2023/12/29 08:17:56;;;;;;;8.18;5.47;;;9.40;1.00;;;;;;5171209;28;20034;-31
2023/12/29 08:20:29;;;;;;;8.05;5.90;;;9.60;1.00;;;;;;5169940;28;20082;-31
2023/12/29 08:23:02;;;;;;;6.87;4.93;;;9.60;1.00;;;;;;5180957;28;20038;-31
2023/12/29 08:25:33;;;;;;;8.68;5.05;;;9.70;1.00;;;;;;5190056;28;20026;-31
2023/12/29 08:28:06;;;;;;;8.65;6.07;;;9.60;1.00;;;;;;5171488;28;20213;-31
2023/12/29 08:30:38;;;;;;;8.50;6.07;;;9.50;1.00;;;;;;5185481;28;20230;-31
2023/12/29 08:33:14;;;;;;;10.38;5.65;;;9.30;1.00;;;;;;5188220;28;20064;-31
2023/12/29 08:35:48;;;;;;;11.82;5.75;;;9.20;1.00;;;;;;5186802;28;20038;-31
2023/12/29 08:38:22;;;;;;;7.70;5.55;;;9.40;1.00;;;;;;5166276;28;20061;-31
2023/12/29 08:40:58;;;;;;;7.78;5.07;;;9.70;1.00;;;;;;5171629;28;20156;-31
2023/12/29 08:43:35;;;;;;;10.45;5.85;;;9.90;1.00;;;;;;5169927;28;20033;-31
2023/12/29 08:46:09;;;;;;;7.78;5.38;;;10.20;1.00;;;;;;5167761;28;20030;-35
2023/12/29 08:48:43;;;;;;;8.93;5.50;;;10.30;1.00;;;;;;5188829;28;20036;-31
2023/12/29 08:51:17;;;;;;;14.20;6.72;;;10.00;1.00;;;;;;5155889;28;20042;-31
2023/12/29 08:53:49;;;;;;;11.13;5.25;;;9.90;1.00;;;;;;5178401;28;20069;-31
2023/12/29 08:56:22;;;;;;;7.07;4.88;;;10.00;1.00;;;;;;5180571;28;20052;-36
2023/12/29 08:58:55;;;;;;;9.77;6.35;;;10.10;1.00;;;;;;5181061;28;20160;-30
2023/12/29 09:01:26;;;;;;;34.97;13.70;;;10.20;1.00;;;;;;5184868;28;20034;-30
2023/12/29 09:03:57;;;;;;;9.15;6.53;;;10.00;1.00;;;;;;5166690;28;20026;-31
2023/12/29 09:06:29;;;;;;;15.02;6.97;;;9.80;1.00;;;;;;5152669;28;20037;-32
2023/12/29 09:09:00;;;;;;;7.45;6.15;;;9.80;1.00;;;;;;5183660;28;20029;-31
2023/12/29 09:11:34;;;;;;;8.93;5.80;;;9.90;1.00;;;;;;5155287;28;20238;-31
2023/12/29 09:14:05;;;;;;;24.42;8.02;;;10.00;1.00;;;;;;5170744;28;20038;-31
2023/12/29 09:16:40;;;;;;;7.97;6.28;;;9.80;1.00;;;;;;5165064;28;20045;-31
2023/12/29 09:19:11;;;;;;;7.90;5.72;;;9.70;1.00;;;;;;5171418;28;20245;-31
2023/12/29 09:21:45;;;;;;;9.80;6.03;;;9.50;1.00;;;;;;5174159;28;20345;-32
2023/12/29 09:24:16;;;;;;;9.70;6.40;;;9.60;1.00;;;;;;5181145;28;20038;-31
2023/12/29 09:26:47;;;;;;;7.70;5.43;;;9.80;1.00;;;;;;5187564;28;20034;-32
2023/12/29 09:29:23;;;;;;;9.63;6.25;;;10.10;1.00;;;;;;5185543;28;20039;-32
2023/12/29 09:31:56;;;;;;;7.53;4.72;;;10.40;1.00;;;;;;5166877;28;20319;-32
2023/12/29 09:34:28;;;;;;;9.20;5.78;;;10.80;1.00;;;;;;5167897;28;20266;-31
2023/12/29 09:37:03;;;;;;;7.97;5.25;;;10.90;1.00;;;;;;5187935;28;20026;-31
2023/12/29 09:39:38;;;;;;;7.13;4.97;;;11.30;1.00;;;;;;5187496;28;20030;-32
2023/12/29 09:42:21;;;;;;;9.02;4.75;;;11.70;1.00;;;;;;5187124;28;20244;-32
2023/12/29 09:44:53;;;;;;;7.10;4.87;;;12.00;1.00;;;;;;5186776;28;20309;-32
2023/12/29 09:47:28;;;;;;;8.50;4.35;;;12.10;1.00;;;;;;5175369;28;20030;-31
2023/12/29 09:50:01;;;;;;;7.85;4.43;;;11.90;1.00;;;;;;5192211;28;20033;-31
2023/12/29 09:52:34;;;;;;;6.65;4.18;;;11.70;1.00;;;;;;5179630;28;20044;-32
2023/12/29 09:55:12;;;;;;;8.98;4.47;;;11.90;1.00;;;;;;5187374;28;20026;-35
2023/12/29 09:57:44;;;;;;;11.68;4.90;;;12.40;1.00;;;;;;5186882;28;20470;-32
2023/12/29 10:00:16;;;;;;;12.25;5.72;;;12.90;1.00;;;;;;5183492;28;20349;-32
2023/12/29 10:02:54;;;;;;;7.78;4.65;;;13.20;99.90;;;;;;5186020;28;20028;-32
2023/12/29 10:05:26;;;;;;;13.27;5.40;;;13.50;99.90;;;;;;5185768;28;20032;-32
2023/12/29 10:08:05;;;;;;;10.95;5.80;;;13.80;99.90;;;;;;5182548;28;20038;-32
2023/12/29 10:10:42;;;;;;;6.65;4.28;;;14.10;99.90;;;;;;5167446;28;20381;-32
2023/12/29 10:13:14;;;;;;;9.82;5.30;;;14.40;99.90;;;;;;5184259;28;20037;-31
2023/12/29 10:16:06;;;;;;;9.57;5.55;;;14.50;99.90;;;;;;5180641;28;20105;-31
2023/12/29 10:18:42;;;;;;;8.45;5.10;;;15.30;99.90;;;;;;5183709;28;20342;-31
2023/12/29 10:21:28;;;;;;;8.23;5.20;;;15.60;67.10;;;;;;5168763;28;20047;-30
2023/12/29 10:24:23;;;;;;;8.15;4.10;;;16.40;1.00;;;;;;5168746;28;20261;-30
2023/12/29 10:26:57;;;;;;;2.58;1.65;;;16.20;1.00;;;;;;5164132;28;20052;-30
2023/12/29 10:29:28;;;;;;;1.10;1.05;;;16.50;1.00;;;;;;5174443;28;20033;-32
2023/12/29 10:32:05;;;;;;;6.40;2.38;;;16.60;99.90;;;;;;5163682;28;20042;-30
2023/12/29 10:34:41;;;;;;;1.00;1.00;;;17.00;99.90;;;;;;5186291;28;20033;-30
2023/12/29 10:37:26;;;;;;;1.30;1.20;;;17.50;99.90;;;;;;5187122;28;20018;-32
2023/12/29 10:39:58;;;;;;;3.50;1.00;;;17.90;99.90;;;;;;5161194;28;20033;-31
2023/12/29 10:42:29;;;;;;;1.02;0.90;;;18.20;99.90;;;;;;5168080;28;20105;-30
2023/12/29 10:45:08;;;;;;;1.20;1.10;;;18.30;1.00;;;;;;5173829;28;20026;-30
2023/12/29 10:47:43;;;;;;;1.25;1.08;;;18.50;1.00;;;;;;5175494;28;20038;-31
2023/12/29 10:50:17;;;;;;;1.55;1.30;;;18.50;1.00;;;;;;5172938;28;20030;-31
2023/12/29 10:52:48;;;;;;;1.50;1.30;;;18.70;1.00;;;;;;5182549;28;20037;-31
2023/12/29 10:55:23;;;;;;;1.55;1.42;;;18.90;1.00;;;;;;5185282;28;20034;-31
2023/12/29 10:58:00;;;;;;;2.10;1.10;;;18.50;1.00;;;;;;5165565;28;20229;-31
2023/12/29 11:00:36;;;;;;;1.13;1.10;;;18.50;1.00;;;;;;5177107;28;20036;-31
2023/12/29 11:03:15;;;;;;;1.00;1.00;;;18.70;1.00;;;;;;5185128;28;20021;-30
2023/12/29 11:05:50;;;;;;;0.90;0.90;;;18.60;1.00;;;;;;5178681;28;20033;-30
2023/12/29 11:08:21;;;;;;;1.23;1.13;;;18.60;1.00;;;;;;5179679;28;20034;-30
2023/12/29 11:10:57;;;;;;;1.27;1.17;;;17.90;1.00;;;;;;5184183;28;20029;-31
2023/12/29 11:13:30;;;;;;;1.35;1.10;;;18.10;1.00;;;;;;5160983;28;20036;-31
2023/12/29 11:16:03;;;;;;;1.20;1.10;;;18.70;1.00;;;;;;5174867;28;20042;-31
2023/12/29 11:18:38;;;;;;;2.30;1.27;;;19.20;1.00;;;;;;5178662;28;20030;-31
2023/12/29 11:21:10;;;;;;;1.10;1.00;;;19.50;1.00;;;;;;5167367;28;20027;-31
2023/12/29 11:23:44;;;;;;;1.05;1.02;;;19.20;1.00;;;;;;5167963;28;20034;-31
2023/12/29 11:26:16;;;;;;;1.42;1.05;;;19.30;1.00;;;;;;5163130;28;20041;-31
2023/12/29 11:28:50;;;;;;;1.10;1.10;;;20.00;1.00;;;;;;5184077;28;20325;-30
2023/12/29 11:31:25;;;;;;;1.52;1.20;;;21.00;1.00;;;;;;5185534;28;20357;-30
2023/12/29 11:34:19;;;;;;;0.90;0.90;;;21.40;1.00;;;;;;5180749;28;20306;-31
2023/12/29 11:36:53;;;;;;;1.85;0.98;;;21.40;1.00;;;;;;5181854;28;20474;-29
2023/12/29 11:39:33;;;;;;;1.15;1.10;;;21.20;1.00;;;;;;5180095;28;20030;-30
2023/12/29 11:42:17;;;;;;;1.10;1.00;;;21.00;1.00;;;;;;5176602;28;20048;-31
2023/12/29 11:44:56;;;;;;;0.85;0.85;;;21.30;1.00;;;;;;5169881;28;20030;-32
2023/12/29 11:47:38;;;;;;;1.10;1.00;;;20.80;1.00;;;;;;5166343;28;20034;-32
2023/12/29 11:50:10;;;;;;;1.67;1.27;;;20.20;1.00;;;;;;5179124;28;20030;-33
2023/12/29 11:52:41;;;;;;;1.15;1.15;;;19.40;1.00;;;;;;5180674;28;20100;-32
2023/12/29 11:55:17;;;;;;;1.00;1.00;;;18.60;1.00;;;;;;5183105;28;20033;-30
2023/12/29 11:57:49;;;;;;;1.25;1.15;;;18.10;1.00;;;;;;5169693;28;20045;-30
2023/12/29 12:00:26;;;;;;;1.10;1.00;;;18.20;1.00;;;;;;5164327;28;20332;-30
2023/12/29 12:02:58;;;;;;;0.90;0.90;;;18.70;1.00;;;;;;5180895;28;20038;-31
2023/12/29 12:05:46;;;;;;;1.10;1.00;;;18.50;1.00;;;;;;5188292;28;20026;-32
2023/12/29 12:08:28;;;;;;;0.95;0.95;;;18.90;1.00;;;;;;5188960;28;20040;-32
2023/12/29 12:11:28;;;;;;;1.15;1.00;;;19.50;1.00;;;;;;5167628;28;20044;-32
2023/12/29 12:13:59;;;;;;;1.20;1.10;;;19.60;1.00;;;;;;5182080;28;20037;-32
2023/12/29 12:16:44;;;;;;;1.10;1.00;;;19.60;1.00;;;;;;5183411;28;20033;-32
2023/12/29 12:19:20;;;;;;;0.98;0.98;;;20.00;1.00;;;;;;5178697;28;20034;-38
2023/12/29 12:21:56;;;;;;;1.33;1.25;;;20.00;1.00;;;;;;5187444;28;20041;-31
2023/12/29 12:24:30;;;;;;;1.17;1.10;;;19.60;1.00;;;;;;5171767;28;20029;-31
2023/12/29 12:27:02;;;;;;;1.00;1.00;;;19.80;1.00;;;;;;5188360;28;20038;-31
2023/12/29 12:29:33;;;;;;;0.82;0.82;;;20.50;1.00;;;;;;5189188;28;20044;-30
2023/12/29 12:32:07;;;;;;;0.90;0.90;;;21.00;1.00;;;;;;5185703;28;20295;-30
2023/12/29 12:34:39;;;;;;;1.20;1.15;;;20.70;1.00;;;;;;5172483;28;20034;-32
2023/12/29 12:37:18;;;;;;;2.10;1.23;;;20.90;1.00;;;;;;5170204;28;20038;-30
2023/12/29 12:39:49;;;;;;;1.08;1.02;;;20.90;1.00;;;;;;5170555;28;20037;-30
2023/12/29 12:42:23;;;;;;;1.23;1.13;;;20.70;1.00;;;;;;5168154;28;20038;-30
2023/12/29 12:44:59;;;;;;;1.50;1.40;;;20.50;1.00;;;;;;5181795;28;20026;-31
2023/12/29 12:47:38;;;;;;;2.58;1.58;;;20.50;1.00;;;;;;5168098;28;20210;-31
2023/12/29 12:50:14;;;;;;;1.20;1.00;;;19.90;1.00;;;;;;5167961;28;20061;-31
2023/12/29 12:52:52;;;;;;;1.38;1.27;;;18.70;1.00;;;;;;5180464;28;20038;-31
2023/12/29 12:55:23;;;;;;;1.33;1.20;;;18.10;1.00;;;;;;5188574;28;20052;-32
2023/12/29 12:57:57;;;;;;;1.20;1.10;;;17.90;1.00;;;;;;5179496;28;20308;-31
2023/12/29 13:00:31;;;;;;;1.20;1.10;;;17.70;1.00;;;;;;5175605;28;20048;-32
2023/12/29 13:03:10;;;;;;;1.00;1.00;;;17.40;1.00;;;;;;5175976;28;20029;-31
2023/12/29 13:05:48;;;;;;;1.48;1.00;;;17.00;1.00;;;;;;5190707;28;20029;-31
2023/12/29 13:08:20;;;;;;;0.90;0.90;;;16.50;99.90;;;;;;5207442;28;20365;-33
2023/12/29 13:10:54;;;;;;;1.88;1.10;;;16.40;1.00;;;;;;5188549;28;20124;-31
2023/12/29 13:13:44;;;;;;;1.40;1.30;;;16.30;1.00;;;;;;5188374;28;20032;-31
2023/12/29 13:16:17;;;;;;;1.40;1.30;;;16.30;1.00;;;;;;5184865;28;20034;-33
2023/12/29 13:18:53;;;;;;;1.80;1.20;;;16.30;1.00;;;;;;5179680;28;20042;-31
2023/12/29 13:21:28;;;;;;;1.33;1.00;;;16.20;1.00;;;;;;5174993;28;20380;-30
2023/12/29 13:24:06;;;;;;;1.20;1.10;;;16.20;1.00;;;;;;5158071;28;21174;-31
2023/12/29 13:26:38;;;;;;;1.95;1.58;;;16.10;1.00;;;;;;5195438;28;20376;-31
2023/12/29 13:29:15;;;;;;;1.38;1.15;;;16.10;1.00;;;;;;5188116;28;20040;-31
2023/12/29 13:31:49;;;;;;;1.20;1.15;;;16.10;1.00;;;;;;5184198;28;20221;-31
2023/12/29 13:34:49;;;;;;;1.33;1.20;;;16.10;1.00;;;;;;5185734;28;20183;-30